KMCW

Mason City Municipal Airport

Mason City, Iowa, USA
METAR KMCW 181953Z AUTO 23013KT 10SM CLR 06/M01 A2977 RMK AO2 SLP088 T00561011
Observed Flight Rules
Dec-18 @ 19:53 UTC (41 minutes ago) Visual Flight Rules
Wind Visibility Clouds
230° at 13 knots 10 miles
  • Clear skies
Temperatures Readings
Current 6°C / 43°F
Dewpoint -1°C / 30°F
Humidity 61%
Altimeter 29.77" Hg
Pressure 1008.8 hPa
Elevation 369
METAR KMCW 181953Z AUTO 23013KT 10SM CLR 06/M01 A2977 RMK AO2 SLP088 T00561011
Observed Flight Rules
Dec-18 @ 19:53 UTC
(41 minutes ago)
VFR
Wind Visibility
230° at 13 knots 10 miles
Clouds
  • Clear skies
Temperature Dewpoint
6°C / 43°F -1°C / 30°F
Humidity Altimeter Pressure
61% 29.77" Hg 1008.8 hPa